sensor_id;sensor_type;location;lat;lon;timestamp;P1;durP1;ratioP1;P2;durP2;ratioP2
6825;SDS011;3451;52.476;13.316;2023-02-28T00:01:20;5.27;;;3.03;;
6825;SDS011;3451;52.476;13.316;2023-02-28T00:03:46;6.70;;;3.60;;
6825;SDS011;3451;52.476;13.316;2023-02-28T00:06:13;4.63;;;2.93;;
6825;SDS011;3451;52.476;13.316;2023-02-28T00:08:39;8.80;;;3.73;;
6825;SDS011;3451;52.476;13.316;2023-02-28T00:11:06;7.50;;;3.40;;
6825;SDS011;3451;52.476;13.316;2023-02-28T00:13:34;7.80;;;3.47;;
6825;SDS011;3451;52.476;13.316;2023-02-28T00:16:11;7.17;;;3.80;;
6825;SDS011;3451;52.476;13.316;2023-02-28T00:18:37;8.60;;;3.70;;
6825;SDS011;3451;52.476;13.316;2023-02-28T00:21:04;8.13;;;3.63;;
6825;SDS011;3451;52.476;13.316;2023-02-28T00:23:31;6.97;;;3.47;;
6825;SDS011;3451;52.476;13.316;2023-02-28T00:25:57;5.90;;;3.93;;
6825;SDS011;3451;52.476;13.316;2023-02-28T00:28:24;6.47;;;3.60;;
6825;SDS011;3451;52.476;13.316;2023-02-28T00:30:50;6.70;;;3.90;;
6825;SDS011;3451;52.476;13.316;2023-02-28T00:33:17;6.80;;;3.57;;
6825;SDS011;3451;52.476;13.316;2023-02-28T00:35:43;6.30;;;3.80;;
6825;SDS011;3451;52.476;13.316;2023-02-28T00:38:13;8.53;;;4.17;;
6825;SDS011;3451;52.476;13.316;2023-02-28T00:40:39;7.73;;;4.17;;
6825;SDS011;3451;52.476;13.316;2023-02-28T00:43:05;7.47;;;3.73;;
6825;SDS011;3451;52.476;13.316;2023-02-28T00:45:32;6.67;;;4.00;;
6825;SDS011;3451;52.476;13.316;2023-02-28T00:47:58;8.90;;;4.33;;
6825;SDS011;3451;52.476;13.316;2023-02-28T00:50:24;6.43;;;3.93;;
6825;SDS011;3451;52.476;13.316;2023-02-28T00:52:51;7.20;;;4.20;;
6825;SDS011;3451;52.476;13.316;2023-02-28T00:55:17;7.50;;;4.10;;
6825;SDS011;3451;52.476;13.316;2023-02-28T00:57:44;7.97;;;4.10;;
6825;SDS011;3451;52.476;13.316;2023-02-28T01:00:11;8.07;;;4.33;;
6825;SDS011;3451;52.476;13.316;2023-02-28T01:02:37;6.00;;;3.80;;
6825;SDS011;3451;52.476;13.316;2023-02-28T01:05:03;9.27;;;4.17;;
6825;SDS011;3451;52.476;13.316;2023-02-28T01:07:30;5.30;;;3.63;;
6825;SDS011;3451;52.476;13.316;2023-02-28T01:09:56;7.30;;;4.60;;
6825;SDS011;3451;52.476;13.316;2023-02-28T01:12:22;8.27;;;4.60;;
6825;SDS011;3451;52.476;13.316;2023-02-28T01:14:49;7.57;;;4.20;;
6825;SDS011;3451;52.476;13.316;2023-02-28T01:17:15;7.57;;;4.10;;
6825;SDS011;3451;52.476;13.316;2023-02-28T01:19:41;7.43;;;4.10;;
6825;SDS011;3451;52.476;13.316;2023-02-28T01:22:08;9.30;;;4.60;;
6825;SDS011;3451;52.476;13.316;2023-02-28T01:24:34;7.57;;;4.27;;
6825;SDS011;3451;52.476;13.316;2023-02-28T01:27:00;10.60;;;4.37;;
6825;SDS011;3451;52.476;13.316;2023-02-28T01:29:26;8.80;;;4.60;;
6825;SDS011;3451;52.476;13.316;2023-02-28T01:31:53;8.50;;;4.50;;
6825;SDS011;3451;52.476;13.316;2023-02-28T01:34:19;7.77;;;4.80;;
6825;SDS011;3451;52.476;13.316;2023-02-28T01:36:46;7.17;;;4.40;;
6825;SDS011;3451;52.476;13.316;2023-02-28T01:39:12;7.50;;;4.70;;
6825;SDS011;3451;52.476;13.316;2023-02-28T01:41:39;10.13;;;4.60;;
6825;SDS011;3451;52.476;13.316;2023-02-28T01:46:50;7.70;;;4.70;;
6825;SDS011;3451;52.476;13.316;2023-02-28T01:49:16;8.23;;;5.17;;
6825;SDS011;3451;52.476;13.316;2023-02-28T01:51:44;9.60;;;5.17;;
6825;SDS011;3451;52.476;13.316;2023-02-28T01:54:14;10.03;;;4.37;;
6825;SDS011;3451;52.476;13.316;2023-02-28T01:56:43;8.87;;;4.83;;
6825;SDS011;3451;52.476;13.316;2023-02-28T01:59:10;8.03;;;4.70;;
6825;SDS011;3451;52.476;13.316;2023-02-28T02:01:38;8.47;;;4.60;;
6825;SDS011;3451;52.476;13.316;2023-02-28T02:04:04;6.70;;;4.50;;
6825;SDS011;3451;52.476;13.316;2023-02-28T02:06:34;9.67;;;5.00;;
6825;SDS011;3451;52.476;13.316;2023-02-28T02:09:00;7.70;;;4.40;;
6825;SDS011;3451;52.476;13.316;2023-02-28T02:11:27;6.87;;;4.63;;
6825;SDS011;3451;52.476;13.316;2023-02-28T02:16:24;7.40;;;4.50;;
6825;SDS011;3451;52.476;13.316;2023-02-28T02:18:53;9.60;;;5.27;;
6825;SDS011;3451;52.476;13.316;2023-02-28T02:21:26;7.60;;;4.83;;
6825;SDS011;3451;52.476;13.316;2023-02-28T02:24:16;8.37;;;5.23;;
6825;SDS011;3451;52.476;13.316;2023-02-28T02:29:22;9.17;;;5.20;;
6825;SDS011;3451;52.476;13.316;2023-02-28T02:32:14;10.20;;;5.07;;
6825;SDS011;3451;52.476;13.316;2023-02-28T02:35:01;8.97;;;5.33;;
6825;SDS011;3451;52.476;13.316;2023-02-28T02:42:44;7.50;;;4.87;;
6825;SDS011;3451;52.476;13.316;2023-02-28T02:45:13;7.40;;;5.30;;
6825;SDS011;3451;52.476;13.316;2023-02-28T02:47:41;11.00;;;5.27;;
6825;SDS011;3451;52.476;13.316;2023-02-28T02:50:11;8.30;;;5.30;;
6825;SDS011;3451;52.476;13.316;2023-02-28T02:52:39;9.53;;;5.23;;
6825;SDS011;3451;52.476;13.316;2023-02-28T02:55:07;10.00;;;4.90;;
6825;SDS011;3451;52.476;13.316;2023-02-28T02:57:38;9.43;;;5.37;;
6825;SDS011;3451;52.476;13.316;2023-02-28T03:00:06;7.80;;;5.03;;
6825;SDS011;3451;52.476;13.316;2023-02-28T03:02:35;7.93;;;5.17;;
6825;SDS011;3451;52.476;13.316;2023-02-28T03:05:09;7.80;;;5.00;;
6825;SDS011;3451;52.476;13.316;2023-02-28T03:07:39;8.37;;;4.83;;
6825;SDS011;3451;52.476;13.316;2023-02-28T03:10:25;11.23;;;5.33;;
6825;SDS011;3451;52.476;13.316;2023-02-28T03:12:52;10.10;;;5.10;;
6825;SDS011;3451;52.476;13.316;2023-02-28T03:15:23;10.03;;;5.43;;
6825;SDS011;3451;52.476;13.316;2023-02-28T03:17:56;9.80;;;5.50;;
6825;SDS011;3451;52.476;13.316;2023-02-28T03:23:03;11.53;;;5.40;;
6825;SDS011;3451;52.476;13.316;2023-02-28T03:25:45;10.57;;;5.30;;
6825;SDS011;3451;52.476;13.316;2023-02-28T03:28:16;8.73;;;4.87;;
6825;SDS011;3451;52.476;13.316;2023-02-28T03:30:51;10.17;;;5.63;;
6825;SDS011;3451;52.476;13.316;2023-02-28T03:33:21;9.07;;;5.07;;
6825;SDS011;3451;52.476;13.316;2023-02-28T03:35:59;8.57;;;5.27;;
6825;SDS011;3451;52.476;13.316;2023-02-28T03:38:38;8.33;;;5.17;;
6825;SDS011;3451;52.476;13.316;2023-02-28T03:41:08;11.60;;;5.23;;
6825;SDS011;3451;52.476;13.316;2023-02-28T03:43:37;10.10;;;5.50;;
6825;SDS011;3451;52.476;13.316;2023-02-28T03:46:06;7.77;;;4.73;;
6825;SDS011;3451;52.476;13.316;2023-02-28T03:48:37;9.37;;;5.33;;
6825;SDS011;3451;52.476;13.316;2023-02-28T03:51:04;10.87;;;5.27;;
6825;SDS011;3451;52.476;13.316;2023-02-28T03:53:37;7.73;;;4.90;;
6825;SDS011;3451;52.476;13.316;2023-02-28T03:56:11;7.53;;;5.10;;
6825;SDS011;3451;52.476;13.316;2023-02-28T03:58:48;8.30;;;5.40;;
6825;SDS011;3451;52.476;13.316;2023-02-28T04:01:21;9.13;;;5.13;;
6825;SDS011;3451;52.476;13.316;2023-02-28T04:03:49;9.70;;;5.17;;
6825;SDS011;3451;52.476;13.316;2023-02-28T04:06:16;9.87;;;5.37;;
6825;SDS011;3451;52.476;13.316;2023-02-28T04:08:43;10.10;;;5.10;;
6825;SDS011;3451;52.476;13.316;2023-02-28T04:13:45;9.77;;;5.03;;
6825;SDS011;3451;52.476;13.316;2023-02-28T04:16:12;9.33;;;5.43;;
6825;SDS011;3451;52.476;13.316;2023-02-28T04:18:57;10.67;;;5.43;;
6825;SDS011;3451;52.476;13.316;2023-02-28T04:21:28;8.03;;;4.87;;
6825;SDS011;3451;52.476;13.316;2023-02-28T04:23:55;10.47;;;5.47;;
6825;SDS011;3451;52.476;13.316;2023-02-28T04:26:21;8.90;;;5.10;;
6825;SDS011;3451;52.476;13.316;2023-02-28T04:28:48;12.03;;;5.73;;
6825;SDS011;3451;52.476;13.316;2023-02-28T04:31:14;10.53;;;5.90;;
6825;SDS011;3451;52.476;13.316;2023-02-28T04:33:40;8.27;;;5.10;;
6825;SDS011;3451;52.476;13.316;2023-02-28T04:36:07;8.07;;;5.30;;
6825;SDS011;3451;52.476;13.316;2023-02-28T04:38:35;9.33;;;5.23;;
6825;SDS011;3451;52.476;13.316;2023-02-28T04:41:02;10.73;;;5.37;;
6825;SDS011;3451;52.476;13.316;2023-02-28T04:43:29;8.73;;;5.60;;
6825;SDS011;3451;52.476;13.316;2023-02-28T04:45:56;11.63;;;5.27;;
6825;SDS011;3451;52.476;13.316;2023-02-28T04:48:23;8.83;;;5.13;;
6825;SDS011;3451;52.476;13.316;2023-02-28T04:50:51;10.30;;;6.23;;
6825;SDS011;3451;52.476;13.316;2023-02-28T04:53:17;13.57;;;6.10;;
6825;SDS011;3451;52.476;13.316;2023-02-28T04:55:43;9.60;;;5.73;;
6825;SDS011;3451;52.476;13.316;2023-02-28T04:58:10;10.80;;;6.20;;
6825;SDS011;3451;52.476;13.316;2023-02-28T05:00:36;10.83;;;5.43;;
6825;SDS011;3451;52.476;13.316;2023-02-28T05:03:02;11.17;;;5.57;;
6825;SDS011;3451;52.476;13.316;2023-02-28T05:05:29;11.67;;;5.93;;
6825;SDS011;3451;52.476;13.316;2023-02-28T05:07:55;12.60;;;6.00;;
6825;SDS011;3451;52.476;13.316;2023-02-28T05:10:22;10.57;;;6.13;;
6825;SDS011;3451;52.476;13.316;2023-02-28T05:12:48;10.67;;;5.80;;
6825;SDS011;3451;52.476;13.316;2023-02-28T05:15:15;10.73;;;5.20;;
6825;SDS011;3451;52.476;13.316;2023-02-28T05:17:42;9.33;;;5.30;;
6825;SDS011;3451;52.476;13.316;2023-02-28T05:20:08;11.23;;;5.97;;
6825;SDS011;3451;52.476;13.316;2023-02-28T05:22:41;11.33;;;5.90;;
6825;SDS011;3451;52.476;13.316;2023-02-28T05:25:09;10.20;;;6.23;;
6825;SDS011;3451;52.476;13.316;2023-02-28T05:27:37;11.60;;;6.20;;
6825;SDS011;3451;52.476;13.316;2023-02-28T05:30:04;9.07;;;5.80;;
6825;SDS011;3451;52.476;13.316;2023-02-28T05:32:32;10.63;;;6.27;;
6825;SDS011;3451;52.476;13.316;2023-02-28T05:34:58;11.57;;;5.83;;
6825;SDS011;3451;52.476;13.316;2023-02-28T05:37:24;11.20;;;5.90;;
6825;SDS011;3451;52.476;13.316;2023-02-28T05:39:51;12.63;;;6.37;;
6825;SDS011;3451;52.476;13.316;2023-02-28T05:42:17;9.90;;;6.00;;
6825;SDS011;3451;52.476;13.316;2023-02-28T05:44:43;11.03;;;5.90;;
6825;SDS011;3451;52.476;13.316;2023-02-28T05:47:09;10.90;;;6.17;;
6825;SDS011;3451;52.476;13.316;2023-02-28T05:49:36;9.70;;;6.00;;
6825;SDS011;3451;52.476;13.316;2023-02-28T05:52:02;11.47;;;6.40;;
6825;SDS011;3451;52.476;13.316;2023-02-28T05:54:29;9.93;;;5.73;;
6825;SDS011;3451;52.476;13.316;2023-02-28T05:56:55;13.03;;;7.03;;
6825;SDS011;3451;52.476;13.316;2023-02-28T05:59:21;10.90;;;6.03;;
6825;SDS011;3451;52.476;13.316;2023-02-28T06:01:47;12.57;;;6.33;;
6825;SDS011;3451;52.476;13.316;2023-02-28T06:04:15;10.90;;;6.37;;
6825;SDS011;3451;52.476;13.316;2023-02-28T06:06:56;11.67;;;6.33;;
6825;SDS011;3451;52.476;13.316;2023-02-28T06:09:23;12.93;;;6.93;;
6825;SDS011;3451;52.476;13.316;2023-02-28T06:11:50;9.30;;;6.03;;
6825;SDS011;3451;52.476;13.316;2023-02-28T06:14:17;11.93;;;6.57;;
6825;SDS011;3451;52.476;13.316;2023-02-28T06:16:43;8.73;;;6.20;;
6825;SDS011;3451;52.476;13.316;2023-02-28T06:19:10;12.73;;;6.83;;
6825;SDS011;3451;52.476;13.316;2023-02-28T06:21:36;12.53;;;6.57;;
6825;SDS011;3451;52.476;13.316;2023-02-28T06:24:03;13.67;;;6.23;;
6825;SDS011;3451;52.476;13.316;2023-02-28T06:26:29;12.63;;;6.17;;
6825;SDS011;3451;52.476;13.316;2023-02-28T06:28:56;12.60;;;6.20;;
6825;SDS011;3451;52.476;13.316;2023-02-28T06:31:22;15.37;;;6.60;;
6825;SDS011;3451;52.476;13.316;2023-02-28T06:33:49;13.27;;;7.00;;
6825;SDS011;3451;52.476;13.316;2023-02-28T06:36:16;14.23;;;6.70;;
6825;SDS011;3451;52.476;13.316;2023-02-28T06:38:43;9.63;;;6.67;;
6825;SDS011;3451;52.476;13.316;2023-02-28T06:41:09;9.73;;;6.40;;
6825;SDS011;3451;52.476;13.316;2023-02-28T06:43:37;14.80;;;6.77;;
6825;SDS011;3451;52.476;13.316;2023-02-28T06:46:04;11.17;;;6.50;;
6825;SDS011;3451;52.476;13.316;2023-02-28T06:48:31;13.90;;;6.47;;
6825;SDS011;3451;52.476;13.316;2023-02-28T06:51:01;10.80;;;6.80;;
6825;SDS011;3451;52.476;13.316;2023-02-28T06:53:27;13.23;;;7.13;;
6825;SDS011;3451;52.476;13.316;2023-02-28T06:55:54;10.30;;;6.83;;
6825;SDS011;3451;52.476;13.316;2023-02-28T06:58:20;13.77;;;7.03;;
6825;SDS011;3451;52.476;13.316;2023-02-28T07:00:50;15.53;;;7.50;;
6825;SDS011;3451;52.476;13.316;2023-02-28T07:03:16;11.73;;;7.27;;
6825;SDS011;3451;52.476;13.316;2023-02-28T07:05:44;15.20;;;7.70;;
6825;SDS011;3451;52.476;13.316;2023-02-28T07:08:10;13.13;;;7.50;;
6825;SDS011;3451;52.476;13.316;2023-02-28T07:10:37;16.13;;;7.70;;
6825;SDS011;3451;52.476;13.316;2023-02-28T07:13:04;13.00;;;7.47;;
6825;SDS011;3451;52.476;13.316;2023-02-28T07:15:30;12.43;;;7.27;;
6825;SDS011;3451;52.476;13.316;2023-02-28T07:17:56;18.03;;;9.07;;
6825;SDS011;3451;52.476;13.316;2023-02-28T07:20:23;15.50;;;8.40;;
6825;SDS011;3451;52.476;13.316;2023-02-28T07:22:49;19.47;;;9.53;;
6825;SDS011;3451;52.476;13.316;2023-02-28T07:25:23;20.53;;;8.50;;
6825;SDS011;3451;52.476;13.316;2023-02-28T07:27:49;20.20;;;9.47;;
6825;SDS011;3451;52.476;13.316;2023-02-28T07:30:15;15.13;;;8.37;;
6825;SDS011;3451;52.476;13.316;2023-02-28T07:32:42;14.00;;;7.27;;
6825;SDS011;3451;52.476;13.316;2023-02-28T07:35:10;13.23;;;6.80;;
6825;SDS011;3451;52.476;13.316;2023-02-28T07:37:36;12.87;;;7.73;;
6825;SDS011;3451;52.476;13.316;2023-02-28T07:40:03;13.10;;;6.67;;
6825;SDS011;3451;52.476;13.316;2023-02-28T07:42:32;10.80;;;6.50;;
6825;SDS011;3451;52.476;13.316;2023-02-28T07:44:58;13.00;;;7.13;;
6825;SDS011;3451;52.476;13.316;2023-02-28T07:47:25;11.33;;;6.70;;
6825;SDS011;3451;52.476;13.316;2023-02-28T07:49:51;16.33;;;6.80;;
6825;SDS011;3451;52.476;13.316;2023-02-28T07:52:17;8.40;;;5.00;;
6825;SDS011;3451;52.476;13.316;2023-02-28T07:54:44;8.33;;;4.03;;
6825;SDS011;3451;52.476;13.316;2023-02-28T07:57:10;7.03;;;4.67;;
6825;SDS011;3451;52.476;13.316;2023-02-28T07:59:36;7.17;;;4.83;;
6825;SDS011;3451;52.476;13.316;2023-02-28T08:02:02;10.00;;;4.57;;
6825;SDS011;3451;52.476;13.316;2023-02-28T08:04:31;10.33;;;4.77;;
6825;SDS011;3451;52.476;13.316;2023-02-28T08:06:57;8.57;;;4.30;;
6825;SDS011;3451;52.476;13.316;2023-02-28T08:09:24;8.07;;;4.23;;
6825;SDS011;3451;52.476;13.316;2023-02-28T08:11:50;10.10;;;5.30;;
6825;SDS011;3451;52.476;13.316;2023-02-28T08:14:16;8.33;;;4.57;;
6825;SDS011;3451;52.476;13.316;2023-02-28T08:16:43;7.50;;;4.37;;
6825;SDS011;3451;52.476;13.316;2023-02-28T08:19:10;9.50;;;3.73;;
6825;SDS011;3451;52.476;13.316;2023-02-28T08:21:36;7.23;;;4.07;;
6825;SDS011;3451;52.476;13.316;2023-02-28T08:24:02;6.73;;;3.53;;
6825;SDS011;3451;52.476;13.316;2023-02-28T08:26:28;7.90;;;3.57;;
6825;SDS011;3451;52.476;13.316;2023-02-28T08:28:55;9.80;;;4.00;;
6825;SDS011;3451;52.476;13.316;2023-02-28T08:31:23;8.33;;;4.43;;
6825;SDS011;3451;52.476;13.316;2023-02-28T08:33:49;9.50;;;3.83;;
6825;SDS011;3451;52.476;13.316;2023-02-28T08:36:18;4.93;;;3.47;;
6825;SDS011;3451;52.476;13.316;2023-02-28T08:38:44;6.30;;;3.27;;
6825;SDS011;3451;52.476;13.316;2023-02-28T08:41:12;5.47;;;3.43;;
6825;SDS011;3451;52.476;13.316;2023-02-28T08:43:39;8.47;;;3.57;;
6825;SDS011;3451;52.476;13.316;2023-02-28T08:46:05;4.23;;;2.50;;
6825;SDS011;3451;52.476;13.316;2023-02-28T08:48:33;4.83;;;2.67;;
6825;SDS011;3451;52.476;13.316;2023-02-28T08:51:00;3.77;;;2.63;;
6825;SDS011;3451;52.476;13.316;2023-02-28T08:53:33;3.60;;;2.17;;
6825;SDS011;3451;52.476;13.316;2023-02-28T08:56:01;4.40;;;2.47;;
6825;SDS011;3451;52.476;13.316;2023-02-28T08:58:27;4.43;;;2.30;;
6825;SDS011;3451;52.476;13.316;2023-02-28T09:00:54;3.10;;;2.23;;
6825;SDS011;3451;52.476;13.316;2023-02-28T09:03:21;3.80;;;2.33;;
6825;SDS011;3451;52.476;13.316;2023-02-28T09:05:56;5.57;;;2.40;;
6825;SDS011;3451;52.476;13.316;2023-02-28T09:08:23;3.03;;;2.00;;
6825;SDS011;3451;52.476;13.316;2023-02-28T09:10:50;3.83;;;2.30;;
6825;SDS011;3451;52.476;13.316;2023-02-28T09:13:17;3.20;;;2.00;;
6825;SDS011;3451;52.476;13.316;2023-02-28T09:15:43;5.03;;;2.10;;
6825;SDS011;3451;52.476;13.316;2023-02-28T09:18:09;3.20;;;1.90;;
6825;SDS011;3451;52.476;13.316;2023-02-28T09:20:37;5.60;;;2.13;;
6825;SDS011;3451;52.476;13.316;2023-02-28T09:23:03;4.67;;;2.43;;
6825;SDS011;3451;52.476;13.316;2023-02-28T09:25:29;9.17;;;2.60;;
6825;SDS011;3451;52.476;13.316;2023-02-28T09:27:56;4.40;;;2.17;;
6825;SDS011;3451;52.476;13.316;2023-02-28T09:30:22;4.37;;;2.43;;
6825;SDS011;3451;52.476;13.316;2023-02-28T09:32:48;5.67;;;2.83;;
6825;SDS011;3451;52.476;13.316;2023-02-28T09:35:18;5.70;;;2.90;;
6825;SDS011;3451;52.476;13.316;2023-02-28T09:37:44;4.60;;;2.43;;
6825;SDS011;3451;52.476;13.316;2023-02-28T09:40:11;5.97;;;2.50;;
6825;SDS011;3451;52.476;13.316;2023-02-28T09:42:38;3.20;;;2.33;;
6825;SDS011;3451;52.476;13.316;2023-02-28T09:45:19;5.47;;;2.63;;
6825;SDS011;3451;52.476;13.316;2023-02-28T09:47:48;4.03;;;2.50;;
6825;SDS011;3451;52.476;13.316;2023-02-28T09:50:28;4.07;;;2.07;;
6825;SDS011;3451;52.476;13.316;2023-02-28T09:52:56;3.43;;;2.00;;
6825;SDS011;3451;52.476;13.316;2023-02-28T09:55:27;4.70;;;2.27;;
6825;SDS011;3451;52.476;13.316;2023-02-28T09:58:00;6.67;;;2.50;;
6825;SDS011;3451;52.476;13.316;2023-02-28T10:00:30;4.43;;;2.33;;
6825;SDS011;3451;52.476;13.316;2023-02-28T10:03:14;2.90;;;2.00;;
6825;SDS011;3451;52.476;13.316;2023-02-28T10:08:16;2.83;;;2.00;;
6825;SDS011;3451;52.476;13.316;2023-02-28T10:10:44;4.87;;;2.23;;
6825;SDS011;3451;52.476;13.316;2023-02-28T10:13:13;3.30;;;2.00;;
6825;SDS011;3451;52.476;13.316;2023-02-28T10:15:40;3.77;;;1.90;;
6825;SDS011;3451;52.476;13.316;2023-02-28T10:18:10;4.20;;;1.70;;
6825;SDS011;3451;52.476;13.316;2023-02-28T10:20:39;5.20;;;1.90;;
6825;SDS011;3451;52.476;13.316;2023-02-28T10:23:09;5.33;;;2.30;;
6825;SDS011;3451;52.476;13.316;2023-02-28T10:25:38;4.17;;;1.97;;
6825;SDS011;3451;52.476;13.316;2023-02-28T10:30:34;4.37;;;1.97;;
6825;SDS011;3451;52.476;13.316;2023-02-28T10:33:01;3.80;;;2.00;;
6825;SDS011;3451;52.476;13.316;2023-02-28T10:35:27;4.40;;;2.40;;
6825;SDS011;3451;52.476;13.316;2023-02-28T10:37:58;4.47;;;2.07;;
6825;SDS011;3451;52.476;13.316;2023-02-28T10:43:01;5.28;;;2.22;;
6825;SDS011;3451;52.476;13.316;2023-02-28T10:45:29;5.57;;;2.33;;
6825;SDS011;3451;52.476;13.316;2023-02-28T10:47:57;5.70;;;2.20;;
6825;SDS011;3451;52.476;13.316;2023-02-28T10:53:05;4.40;;;2.43;;
6825;SDS011;3451;52.476;13.316;2023-02-28T10:55:33;5.23;;;2.73;;
6825;SDS011;3451;52.476;13.316;2023-02-28T10:57:59;4.40;;;2.63;;
6825;SDS011;3451;52.476;13.316;2023-02-28T11:00:26;5.07;;;2.50;;
6825;SDS011;3451;52.476;13.316;2023-02-28T11:02:57;4.63;;;2.10;;
6825;SDS011;3451;52.476;13.316;2023-02-28T11:05:25;6.05;;;2.78;;
6825;SDS011;3451;52.476;13.316;2023-02-28T11:07:53;3.40;;;2.00;;
6825;SDS011;3451;52.476;13.316;2023-02-28T11:10:20;3.93;;;2.20;;
6825;SDS011;3451;52.476;13.316;2023-02-28T11:12:47;5.37;;;2.30;;
6825;SDS011;3451;52.476;13.316;2023-02-28T11:15:22;4.40;;;2.30;;
6825;SDS011;3451;52.476;13.316;2023-02-28T11:17:58;9.03;;;2.70;;
6825;SDS011;3451;52.476;13.316;2023-02-28T11:20:26;4.37;;;2.67;;
6825;SDS011;3451;52.476;13.316;2023-02-28T11:22:53;3.47;;;2.30;;
6825;SDS011;3451;52.476;13.316;2023-02-28T11:25:23;4.40;;;2.30;;
6825;SDS011;3451;52.476;13.316;2023-02-28T11:27:50;6.43;;;2.40;;
6825;SDS011;3451;52.476;13.316;2023-02-28T11:30:25;5.73;;;2.73;;
6825;SDS011;3451;52.476;13.316;2023-02-28T11:32:51;3.10;;;2.30;;
6825;SDS011;3451;52.476;13.316;2023-02-28T11:35:21;3.90;;;2.80;;
6825;SDS011;3451;52.476;13.316;2023-02-28T11:37:49;4.30;;;2.93;;
6825;SDS011;3451;52.476;13.316;2023-02-28T11:40:16;2.90;;;2.30;;
6825;SDS011;3451;52.476;13.316;2023-02-28T11:43:06;7.90;;;2.53;;
6825;SDS011;3451;52.476;13.316;2023-02-28T11:48:04;4.37;;;2.90;;
6825;SDS011;3451;52.476;13.316;2023-02-28T11:50:38;6.07;;;3.27;;
6825;SDS011;3451;52.476;13.316;2023-02-28T11:53:18;5.40;;;2.70;;
6825;SDS011;3451;52.476;13.316;2023-02-28T11:55:49;5.27;;;3.03;;
6825;SDS011;3451;52.476;13.316;2023-02-28T11:58:25;7.23;;;3.10;;
6825;SDS011;3451;52.476;13.316;2023-02-28T12:03:26;7.60;;;2.90;;
6825;SDS011;3451;52.476;13.316;2023-02-28T12:06:38;6.33;;;3.07;;
6825;SDS011;3451;52.476;13.316;2023-02-28T12:16:57;5.87;;;3.47;;
6825;SDS011;3451;52.476;13.316;2023-02-28T12:19:35;5.93;;;3.73;;
6825;SDS011;3451;52.476;13.316;2023-02-28T12:27:22;4.77;;;3.20;;
6825;SDS011;3451;52.476;13.316;2023-02-28T12:29:56;8.33;;;3.83;;
6825;SDS011;3451;52.476;13.316;2023-02-28T12:32:26;7.17;;;3.30;;
6825;SDS011;3451;52.476;13.316;2023-02-28T12:34:55;8.27;;;4.03;;
6825;SDS011;3451;52.476;13.316;2023-02-28T12:38:05;7.13;;;3.63;;
6825;SDS011;3451;52.476;13.316;2023-02-28T12:40:17;7.00;;;3.37;;
6825;SDS011;3451;52.476;13.316;2023-02-28T12:42:45;6.57;;;4.00;;
6825;SDS011;3451;52.476;13.316;2023-02-28T12:45:22;8.23;;;3.30;;
6825;SDS011;3451;52.476;13.316;2023-02-28T12:47:56;6.20;;;3.73;;
6825;SDS011;3451;52.476;13.316;2023-02-28T12:50:23;7.60;;;4.03;;
6825;SDS011;3451;52.476;13.316;2023-02-28T12:52:55;7.27;;;3.90;;
6825;SDS011;3451;52.476;13.316;2023-02-28T12:55:27;7.83;;;3.87;;
6825;SDS011;3451;52.476;13.316;2023-02-28T13:00:30;7.33;;;3.50;;
6825;SDS011;3451;52.476;13.316;2023-02-28T13:03:03;6.78;;;4.32;;
6825;SDS011;3451;52.476;13.316;2023-02-28T13:05:49;6.70;;;4.13;;
6825;SDS011;3451;52.476;13.316;2023-02-28T13:10:48;8.13;;;3.97;;
6825;SDS011;3451;52.476;13.316;2023-02-28T13:13:21;5.63;;;3.40;;
6825;SDS011;3451;52.476;13.316;2023-02-28T13:15:58;7.40;;;3.73;;
6825;SDS011;3451;52.476;13.316;2023-02-28T13:18:27;6.13;;;3.70;;
6825;SDS011;3451;52.476;13.316;2023-02-28T13:20:54;5.97;;;3.57;;
6825;SDS011;3451;52.476;13.316;2023-02-28T13:23:40;6.23;;;3.50;;
6825;SDS011;3451;52.476;13.316;2023-02-28T13:26:07;6.53;;;4.10;;
6825;SDS011;3451;52.476;13.316;2023-02-28T13:28:56;10.07;;;3.70;;
6825;SDS011;3451;52.476;13.316;2023-02-28T13:31:23;5.47;;;3.63;;
6825;SDS011;3451;52.476;13.316;2023-02-28T13:36:26;7.07;;;3.33;;
6825;SDS011;3451;52.476;13.316;2023-02-28T13:38:56;4.73;;;3.50;;
6825;SDS011;3451;52.476;13.316;2023-02-28T13:46:32;4.27;;;3.20;;
6825;SDS011;3451;52.476;13.316;2023-02-28T13:51:45;5.90;;;3.40;;
6825;SDS011;3451;52.476;13.316;2023-02-28T13:54:24;4.77;;;3.43;;
6825;SDS011;3451;52.476;13.316;2023-02-28T13:56:57;7.00;;;3.33;;
6825;SDS011;3451;52.476;13.316;2023-02-28T13:59:37;7.83;;;3.20;;
6825;SDS011;3451;52.476;13.316;2023-02-28T14:03:00;6.87;;;3.30;;
6825;SDS011;3451;52.476;13.316;2023-02-28T14:05:15;5.70;;;3.37;;
6825;SDS011;3451;52.476;13.316;2023-02-28T14:07:45;5.70;;;3.20;;
6825;SDS011;3451;52.476;13.316;2023-02-28T14:10:21;6.33;;;3.50;;
6825;SDS011;3451;52.476;13.316;2023-02-28T14:15:34;6.23;;;3.23;;
6825;SDS011;3451;52.476;13.316;2023-02-28T14:18:03;6.00;;;3.73;;
6825;SDS011;3451;52.476;13.316;2023-02-28T14:20:31;6.30;;;3.70;;
6825;SDS011;3451;52.476;13.316;2023-02-28T14:23:03;8.87;;;3.80;;
6825;SDS011;3451;52.476;13.316;2023-02-28T14:30:40;8.33;;;4.40;;
6825;SDS011;3451;52.476;13.316;2023-02-28T14:33:15;7.40;;;3.50;;
6825;SDS011;3451;52.476;13.316;2023-02-28T14:35:49;6.57;;;3.37;;
6825;SDS011;3451;52.476;13.316;2023-02-28T14:38:21;4.77;;;3.30;;
6825;SDS011;3451;52.476;13.316;2023-02-28T14:40:51;7.30;;;3.80;;
6825;SDS011;3451;52.476;13.316;2023-02-28T14:43:19;7.13;;;3.60;;
6825;SDS011;3451;52.476;13.316;2023-02-28T14:45:49;6.77;;;3.50;;
6825;SDS011;3451;52.476;13.316;2023-02-28T14:48:16;5.77;;;3.57;;
6825;SDS011;3451;52.476;13.316;2023-02-28T14:50:48;8.10;;;3.80;;
6825;SDS011;3451;52.476;13.316;2023-02-28T14:53:16;8.10;;;3.10;;
6825;SDS011;3451;52.476;13.316;2023-02-28T14:55:44;6.37;;;3.47;;
6825;SDS011;3451;52.476;13.316;2023-02-28T14:58:25;7.60;;;3.60;;
6825;SDS011;3451;52.476;13.316;2023-02-28T15:00:52;4.53;;;3.20;;
6825;SDS011;3451;52.476;13.316;2023-02-28T15:03:20;6.00;;;3.40;;
6825;SDS011;3451;52.476;13.316;2023-02-28T15:05:51;4.80;;;2.93;;
6825;SDS011;3451;52.476;13.316;2023-02-28T15:08:18;7.73;;;3.60;;
6825;SDS011;3451;52.476;13.316;2023-02-28T15:10:50;4.70;;;3.43;;
6825;SDS011;3451;52.476;13.316;2023-02-28T15:13:18;7.53;;;3.30;;
6825;SDS011;3451;52.476;13.316;2023-02-28T15:16:03;6.00;;;3.53;;
6825;SDS011;3451;52.476;13.316;2023-02-28T15:18:38;5.33;;;2.90;;
6825;SDS011;3451;52.476;13.316;2023-02-28T15:21:17;7.30;;;3.83;;
6825;SDS011;3451;52.476;13.316;2023-02-28T15:23:46;6.63;;;3.43;;
6825;SDS011;3451;52.476;13.316;2023-02-28T15:26:19;4.97;;;3.37;;
6825;SDS011;3451;52.476;13.316;2023-02-28T15:28:46;6.03;;;3.27;;
6825;SDS011;3451;52.476;13.316;2023-02-28T15:31:23;9.30;;;3.60;;
6825;SDS011;3451;52.476;13.316;2023-02-28T15:33:52;6.83;;;4.20;;
6825;SDS011;3451;52.476;13.316;2023-02-28T15:36:19;7.27;;;3.60;;
6825;SDS011;3451;52.476;13.316;2023-02-28T15:38:51;6.17;;;3.70;;
6825;SDS011;3451;52.476;13.316;2023-02-28T15:41:37;6.73;;;3.70;;
6825;SDS011;3451;52.476;13.316;2023-02-28T15:44:13;9.83;;;3.67;;
6825;SDS011;3451;52.476;13.316;2023-02-28T15:46:41;6.60;;;3.47;;
6825;SDS011;3451;52.476;13.316;2023-02-28T15:49:14;7.73;;;3.83;;
6825;SDS011;3451;52.476;13.316;2023-02-28T15:51:43;8.70;;;3.63;;
6825;SDS011;3451;52.476;13.316;2023-02-28T15:54:14;6.67;;;3.60;;
6825;SDS011;3451;52.476;13.316;2023-02-28T15:56:44;6.90;;;4.10;;
6825;SDS011;3451;52.476;13.316;2023-02-28T15:59:18;6.17;;;3.70;;
6825;SDS011;3451;52.476;13.316;2023-02-28T16:01:44;8.87;;;3.60;;
6825;SDS011;3451;52.476;13.316;2023-02-28T16:04:15;8.67;;;3.60;;
6825;SDS011;3451;52.476;13.316;2023-02-28T16:06:42;6.87;;;3.97;;
6825;SDS011;3451;52.476;13.316;2023-02-28T16:09:10;7.77;;;3.43;;
6825;SDS011;3451;52.476;13.316;2023-02-28T16:11:38;5.13;;;3.83;;
6825;SDS011;3451;52.476;13.316;2023-02-28T16:14:05;7.53;;;3.63;;
6825;SDS011;3451;52.476;13.316;2023-02-28T16:16:31;7.43;;;4.37;;
6825;SDS011;3451;52.476;13.316;2023-02-28T16:18:58;7.50;;;4.33;;
6825;SDS011;3451;52.476;13.316;2023-02-28T16:21:25;7.82;;;4.53;;